createdAt,value
2019-05-10T00:00:43.928Z,13.11
2019-05-10T00:03:31.845Z,13.09
2019-05-10T00:06:19.455Z,13.08
2019-05-10T00:08:48.402Z,13.06
2019-05-10T00:11:37.831Z,13.02
2019-05-10T00:17:16.839Z,12.98
2019-05-10T00:19:46.567Z,12.96
2019-05-10T00:22:16.347Z,12.98
2019-05-10T00:25:02.067Z,12.98
2019-05-10T00:27:18.226Z,12.99
2019-05-10T00:29:47.934Z,12.96
2019-05-10T00:32:17.704Z,12.94
2019-05-10T00:34:47.342Z,12.94
2019-05-10T00:37:17.021Z,12.95
2019-05-10T00:39:46.675Z,12.93
2019-05-10T00:42:16.364Z,12.93
2019-05-10T00:44:46.333Z,12.92
2019-05-10T00:47:16.015Z,12.92
2019-05-10T00:49:45.731Z,12.93
2019-05-10T00:52:15.542Z,12.93
2019-05-10T00:54:45.250Z,12.91
2019-05-10T00:57:14.912Z,12.91
2019-05-10T00:59:44.569Z,12.91
2019-05-10T01:02:14.726Z,12.89
2019-05-10T01:04:44.653Z,12.85
2019-05-10T01:07:14.280Z,12.86
2019-05-10T01:09:44.130Z,12.86
2019-05-10T01:12:14.548Z,12.86
2019-05-10T01:14:44.554Z,12.85
2019-05-10T01:17:14.080Z,12.85
2019-05-10T01:19:43.770Z,12.83
2019-05-10T01:22:13.413Z,12.81
2019-05-10T01:24:43.368Z,12.81
2019-05-10T01:27:13.029Z,12.81
2019-05-10T01:29:43.327Z,12.79
2019-05-10T01:32:13.008Z,12.76
2019-05-10T01:34:42.642Z,12.76
2019-05-10T01:37:12.296Z,12.75
2019-05-10T01:39:43.953Z,12.75
2019-05-10T01:42:13.594Z,12.75
2019-05-10T01:44:43.989Z,12.74
2019-05-10T01:47:13.680Z,12.71
2019-05-10T01:49:43.323Z,12.71
2019-05-10T01:52:13.018Z,12.72
2019-05-10T01:54:43.402Z,12.73
2019-05-10T01:57:13.036Z,12.75
2019-05-10T01:59:42.922Z,12.74
2019-05-10T02:02:13.381Z,12.75
2019-05-10T02:04:43.031Z,12.75
2019-05-10T02:07:13.196Z,12.74
2019-05-10T02:09:43.848Z,12.74
2019-05-10T02:12:13.496Z,12.74
2019-05-10T02:14:43.794Z,12.72
2019-05-10T02:17:13.467Z,12.73
2019-05-10T02:19:43.282Z,12.72
2019-05-10T02:22:13.090Z,12.70
2019-05-10T02:24:43.349Z,12.71
2019-05-10T02:27:12.986Z,12.72
2019-05-10T02:29:42.920Z,12.73
2019-05-10T02:32:12.645Z,12.74
2019-05-10T02:34:42.824Z,12.75
2019-05-10T02:37:13.366Z,12.76
2019-05-10T02:39:43.026Z,12.75
2019-05-10T02:42:12.667Z,12.76
2019-05-10T02:44:42.318Z,12.76
2019-05-10T02:47:12.023Z,12.77
2019-05-10T02:49:42.230Z,12.77
2019-05-10T02:52:11.884Z,12.76
2019-05-10T02:58:05.512Z,12.75
2019-05-10T03:00:37.232Z,12.76
2019-05-10T03:03:08.429Z,12.75
2019-05-10T03:05:39.597Z,12.73
2019-05-10T03:08:11.414Z,12.72
2019-05-10T03:10:44.111Z,12.71
2019-05-10T03:13:18.622Z,12.69
2019-05-10T03:15:51.341Z,12.66
2019-05-10T03:18:23.320Z,12.64
2019-05-10T03:20:56.826Z,12.63
2019-05-10T03:23:26.999Z,12.64
2019-05-10T03:25:57.208Z,12.64
2019-05-10T03:28:26.826Z,12.64
2019-05-10T03:30:56.578Z,12.63
2019-05-10T03:33:26.530Z,12.63
2019-05-10T03:35:56.166Z,12.61
2019-05-10T03:38:25.801Z,12.59
2019-05-10T03:40:55.815Z,12.57
2019-05-10T03:43:25.468Z,12.55
2019-05-10T03:45:55.103Z,12.54
2019-05-10T03:48:24.903Z,12.50
2019-05-10T03:50:55.300Z,12.48
2019-05-10T03:53:24.943Z,12.47
2019-05-10T03:55:54.625Z,12.47
2019-05-10T03:58:24.255Z,12.45
2019-05-10T04:00:53.908Z,12.46
2019-05-10T04:03:23.583Z,12.45
2019-05-10T04:05:53.222Z,12.43
2019-05-10T04:08:22.883Z,12.41
2019-05-10T04:10:53.325Z,12.40
2019-05-10T04:13:23.147Z,12.41
2019-05-10T04:15:54.451Z,12.44
2019-05-10T04:18:24.122Z,12.44
2019-05-10T04:20:53.749Z,12.45
2019-05-10T04:23:23.383Z,12.49
2019-05-10T04:25:53.166Z,12.52
2019-05-10T04:28:22.807Z,12.54
2019-05-10T04:30:52.451Z,12.56
2019-05-10T04:33:22.151Z,12.56
2019-05-10T04:35:51.801Z,12.58
2019-05-10T04:38:21.441Z,12.56
2019-05-10T04:40:51.117Z,12.56
2019-05-10T04:43:20.773Z,12.52
2019-05-10T04:45:50.397Z,12.52
2019-05-10T04:48:20.075Z,12.52
2019-05-10T04:50:50.991Z,12.55
2019-05-10T04:53:20.692Z,12.53
2019-05-10T04:55:50.371Z,12.45
2019-05-10T04:58:20.003Z,12.45
2019-05-10T05:00:49.813Z,12.49
2019-05-10T05:03:19.494Z,12.42
2019-05-10T05:05:49.803Z,12.28
2019-05-10T05:08:19.503Z,12.24
2019-05-10T05:10:49.266Z,12.29
2019-05-10T05:13:18.942Z,12.28
2019-05-10T05:15:48.589Z,12.31
2019-05-10T05:18:18.288Z,12.35
2019-05-10T05:20:48.090Z,12.41
2019-05-10T05:26:41.222Z,12.34
2019-05-10T05:29:12.390Z,12.46
2019-05-10T05:31:42.108Z,12.49
2019-05-10T05:34:12.275Z,12.49
2019-05-10T05:36:42.176Z,12.51
2019-05-10T05:39:12.207Z,12.44
2019-05-10T05:41:49.445Z,12.36
2019-05-10T05:44:13.346Z,12.38
2019-05-10T05:46:42.976Z,12.45
2019-05-10T05:49:12.672Z,12.56
2019-05-10T05:51:42.367Z,12.58
2019-05-10T05:54:15.241Z,12.59
2019-05-10T05:56:44.548Z,12.66
2019-05-10T05:59:17.605Z,12.63
2019-05-10T06:01:46.124Z,12.57
2019-05-10T06:04:15.842Z,12.56
2019-05-10T06:06:46.029Z,12.56
2019-05-10T06:09:15.730Z,12.61
2019-05-10T06:11:45.458Z,12.60
2019-05-10T06:14:15.106Z,12.61
2019-05-10T06:16:50.876Z,12.56
2019-05-10T06:19:19.945Z,12.59
2019-05-10T06:21:48.106Z,12.68
2019-05-10T06:24:18.112Z,12.72
2019-05-10T06:26:48.205Z,12.78
2019-05-10T06:29:19.899Z,12.80
2019-05-10T06:31:49.360Z,12.84
2019-05-10T06:34:19.038Z,12.89
2019-05-10T06:36:48.684Z,12.91
2019-05-10T06:39:18.397Z,12.96
2019-05-10T06:41:50.123Z,12.97
2019-05-10T06:44:19.575Z,12.91
2019-05-10T06:46:49.220Z,12.85
2019-05-10T06:49:19.144Z,12.90
2019-05-10T06:51:50.867Z,12.90
2019-05-10T06:54:20.957Z,12.93
2019-05-10T06:56:50.895Z,12.93
2019-05-10T06:59:24.928Z,12.97
2019-05-10T07:01:52.462Z,13.03
2019-05-10T07:04:22.251Z,13.11
2019-05-10T07:06:51.973Z,13.17
2019-05-10T07:09:24.098Z,13.17
2019-05-10T07:11:53.810Z,13.22
2019-05-10T07:14:27.097Z,13.35
2019-05-10T07:17:02.043Z,13.38
2019-05-10T07:19:29.293Z,13.42
2019-05-10T07:21:58.934Z,13.47
2019-05-10T07:24:28.564Z,13.48
2019-05-10T07:27:02.353Z,13.50
2019-05-10T07:29:30.590Z,13.42
2019-05-10T07:32:01.003Z,13.37
2019-05-10T07:34:30.748Z,13.40
2019-05-10T07:37:01.961Z,13.46
2019-05-10T07:39:31.806Z,13.54
2019-05-10T07:42:06.486Z,13.62
2019-05-10T07:44:32.926Z,13.75
2019-05-10T07:47:02.567Z,13.83
2019-05-10T07:49:32.551Z,13.89
2019-05-10T07:52:04.275Z,13.95
2019-05-10T07:54:37.355Z,14.00
2019-05-10T07:57:05.250Z,14.03
2019-05-10T07:59:49.520Z,13.88
2019-05-10T08:02:12.808Z,13.84
2019-05-10T08:04:38.473Z,13.88
2019-05-10T08:07:10.443Z,13.94
2019-05-10T08:09:44.822Z,14.01
2019-05-10T08:12:13.034Z,14.06
2019-05-10T08:14:47.562Z,14.05
2019-05-10T08:17:13.753Z,14.07
2019-05-10T08:19:43.642Z,14.14
2019-05-10T08:22:14.891Z,14.23
2019-05-10T08:24:52.210Z,14.32
2019-05-10T08:27:15.960Z,14.41
2019-05-10T08:29:45.607Z,14.50
2019-05-10T08:32:19.273Z,14.57
2019-05-10T08:34:52.072Z,14.61
2019-05-10T08:37:30.451Z,14.56
2019-05-10T08:39:55.339Z,14.57
2019-05-10T08:42:38.000Z,14.62
2019-05-10T08:45:03.828Z,14.72
2019-05-10T08:47:27.781Z,14.79
2019-05-10T08:50:10.376Z,14.82
2019-05-10T08:52:31.730Z,14.84
2019-05-10T08:54:59.511Z,14.89
2019-05-10T08:57:29.239Z,14.96
2019-05-10T09:00:06.557Z,15.06
2019-05-10T09:02:32.784Z,15.19
2019-05-10T09:05:02.715Z,15.31
2019-05-10T09:07:36.850Z,15.36
2019-05-10T09:10:09.302Z,15.39
2019-05-10T09:12:50.301Z,15.45
2019-05-10T09:15:13.495Z,15.49
2019-05-10T09:17:43.467Z,15.51
2019-05-10T09:20:20.625Z,15.57
2019-05-10T09:22:44.891Z,15.66
2019-05-10T09:25:15.159Z,15.73
2019-05-10T09:27:44.856Z,15.79
2019-05-10T09:30:18.530Z,15.79
2019-05-10T09:32:48.937Z,15.79
2019-05-10T09:35:18.998Z,15.83
2019-05-10T09:37:53.958Z,15.89
2019-05-10T09:40:22.020Z,15.95
2019-05-10T09:42:52.258Z,15.98
2019-05-10T09:45:24.357Z,16.00
2019-05-10T09:47:53.604Z,15.95
2019-05-10T09:50:23.415Z,15.90
2019-05-10T09:52:53.100Z,15.94
2019-05-10T09:55:22.710Z,15.98
2019-05-10T09:57:52.415Z,16.04
2019-05-10T10:00:33.294Z,16.11
2019-05-10T10:03:03.311Z,16.10
2019-05-10T10:05:32.949Z,16.12
2019-05-10T10:08:03.776Z,16.08
2019-05-10T10:10:33.942Z,16.04
2019-05-10T10:13:10.886Z,16.02
2019-05-10T10:15:37.026Z,16.03
2019-05-10T10:18:06.684Z,16.04
2019-05-10T10:20:43.564Z,16.08
2019-05-10T10:23:07.744Z,16.15
2019-05-10T10:25:40.651Z,16.20
2019-05-10T10:28:17.242Z,16.33
2019-05-10T10:30:40.267Z,16.45
2019-05-10T10:33:13.655Z,16.50
2019-05-10T10:35:41.347Z,16.53
2019-05-10T10:38:10.989Z,16.54
2019-05-10T10:40:44.742Z,16.54
2019-05-10T10:43:12.264Z,16.57
2019-05-10T10:45:41.955Z,16.64
2019-05-10T10:48:13.054Z,16.75
2019-05-10T10:50:44.488Z,16.85
2019-05-10T10:53:14.295Z,16.92
2019-05-10T10:55:46.081Z,17.00
2019-05-10T10:58:18.213Z,17.07
2019-05-10T11:00:48.119Z,17.16
2019-05-10T11:03:18.085Z,17.24
2019-05-10T11:05:48.553Z,17.24
2019-05-10T11:08:18.227Z,17.20
2019-05-10T11:10:50.530Z,17.17
2019-05-10T11:13:39.832Z,17.18
2019-05-10T11:15:51.727Z,17.18
2019-05-10T11:18:21.834Z,17.19
2019-05-10T11:20:53.883Z,17.31
2019-05-10T11:23:26.824Z,17.44
2019-05-10T11:25:56.624Z,17.61
2019-05-10T11:28:32.486Z,17.71
2019-05-10T11:30:58.059Z,17.77
2019-05-10T11:33:32.883Z,17.84
2019-05-10T11:36:03.913Z,17.97
2019-05-10T11:38:31.739Z,18.07
2019-05-10T11:41:02.167Z,18.06
2019-05-10T11:43:33.101Z,17.99
2019-05-10T11:46:02.807Z,17.93
2019-05-10T11:48:37.240Z,17.88
2019-05-10T11:51:05.612Z,17.84
2019-05-10T11:53:35.706Z,17.84
2019-05-10T11:56:07.829Z,17.86
2019-05-10T11:58:37.465Z,17.77
2019-05-10T12:01:14.831Z,17.67
2019-05-10T12:03:42.519Z,17.63
2019-05-10T12:06:12.541Z,17.56
2019-05-10T12:08:42.261Z,17.54
2019-05-10T12:11:27.829Z,17.49
2019-05-10T12:13:43.519Z,17.47
2019-05-10T12:16:16.830Z,17.46
2019-05-10T12:19:00.845Z,17.49
2019-05-10T12:21:16.628Z,17.55
2019-05-10T12:23:50.969Z,17.61
2019-05-10T12:28:51.083Z,18.16
2019-05-10T12:31:23.424Z,18.45
2019-05-10T12:33:54.452Z,18.87
2019-05-10T12:36:27.544Z,18.83
2019-05-10T12:38:56.280Z,18.82
2019-05-10T12:41:26.913Z,19.82
2019-05-10T12:44:04.146Z,20.37
2019-05-10T12:46:30.707Z,21.21
2019-05-10T12:49:02.081Z,21.41
2019-05-10T12:51:31.886Z,20.97
2019-05-10T12:54:01.533Z,20.42
2019-05-10T12:56:35.067Z,19.99
2019-05-10T12:59:03.271Z,19.74
2019-05-10T13:01:33.298Z,20.63
2019-05-10T13:04:13.939Z,21.16
2019-05-10T13:06:34.982Z,22.17
2019-05-10T13:09:06.902Z,21.98
2019-05-10T13:11:37.413Z,21.43
2019-05-10T13:14:09.834Z,20.82
2019-05-10T13:16:39.425Z,20.36
2019-05-10T13:19:14.219Z,20.00
2019-05-10T13:21:40.502Z,19.72
2019-05-10T13:24:10.132Z,19.45
2019-05-10T13:26:39.948Z,19.26
2019-05-10T13:29:10.506Z,19.13
2019-05-10T13:31:43.031Z,19.07
2019-05-10T13:34:12.233Z,19.01
2019-05-10T13:36:45.447Z,18.93
2019-05-10T13:39:19.061Z,19.29
2019-05-10T13:41:48.170Z,20.53
2019-05-10T13:44:18.066Z,20.65
2019-05-10T13:46:47.838Z,21.83
2019-05-10T13:49:17.551Z,22.57
2019-05-10T13:51:47.190Z,22.41
2019-05-10T13:54:16.827Z,22.17
2019-05-10T13:56:52.429Z,21.77
2019-05-10T13:59:18.199Z,21.53
2019-05-10T14:01:49.637Z,21.62
2019-05-10T14:04:22.891Z,21.73
2019-05-10T14:06:50.713Z,21.74
2019-05-10T14:09:21.057Z,21.82
2019-05-10T14:11:50.877Z,21.90
2019-05-10T14:14:31.479Z,21.95
2019-05-10T14:17:01.331Z,21.95
2019-05-10T14:19:30.984Z,21.84
2019-05-10T14:22:00.723Z,21.47
2019-05-10T14:24:30.486Z,21.33
2019-05-10T14:27:00.134Z,21.38
2019-05-10T14:29:34.785Z,21.33
2019-05-10T14:32:01.666Z,21.40
2019-05-10T14:34:37.880Z,21.45
2019-05-10T14:37:04.349Z,21.24
2019-05-10T14:42:57.176Z,21.08
2019-05-10T14:45:26.812Z,21.21
2019-05-10T14:47:56.759Z,21.22
2019-05-10T14:50:28.400Z,21.24
2019-05-10T14:52:57.928Z,21.32
2019-05-10T14:55:33.992Z,21.34
2019-05-10T14:57:58.992Z,21.26
2019-05-10T15:00:28.631Z,21.25
2019-05-10T15:03:01.994Z,21.26
2019-05-10T15:05:30.075Z,21.26
2019-05-10T15:07:59.721Z,21.26
2019-05-10T15:10:33.154Z,21.31
2019-05-10T15:13:00.863Z,21.32
2019-05-10T15:15:31.243Z,21.20
2019-05-10T15:18:03.479Z,21.15
2019-05-10T15:20:35.893Z,21.06
2019-05-10T15:23:04.960Z,21.06
2019-05-10T15:25:34.595Z,21.07
2019-05-10T15:28:04.558Z,21.07
2019-05-10T15:30:39.122Z,21.03
2019-05-10T15:33:06.191Z,21.00
2019-05-10T15:35:36.114Z,21.03
2019-05-10T15:38:07.612Z,21.03
2019-05-10T15:40:38.704Z,21.07
2019-05-10T15:43:10.524Z,20.98
2019-05-10T15:45:40.475Z,20.98
2019-05-10T15:48:10.362Z,20.94
2019-05-10T15:50:41.166Z,20.90
2019-05-10T15:53:12.036Z,20.92
2019-05-10T15:55:41.749Z,20.98
2019-05-10T15:58:11.773Z,20.96
2019-05-10T16:00:41.765Z,20.93
2019-05-10T16:03:12.248Z,20.87
2019-05-10T16:05:43.936Z,20.73
2019-05-10T16:08:13.844Z,20.60
2019-05-10T16:10:43.776Z,20.55
2019-05-10T16:13:20.034Z,20.49
2019-05-10T16:15:44.943Z,20.40
2019-05-10T16:18:15.873Z,20.37
2019-05-10T16:20:45.569Z,20.27
2019-05-10T16:23:15.301Z,20.16
2019-05-10T16:25:48.149Z,20.10
2019-05-10T16:28:20.765Z,20.06
2019-05-10T16:30:47.890Z,19.99
2019-05-10T16:33:18.841Z,19.91
2019-05-10T16:35:51.911Z,19.83
2019-05-10T16:38:20.040Z,19.65
2019-05-10T16:40:58.369Z,19.49
2019-05-10T16:43:24.834Z,19.27
2019-05-10T16:45:54.285Z,19.07
2019-05-10T16:48:27.906Z,18.89
2019-05-10T16:50:55.510Z,18.73
2019-05-10T16:53:25.202Z,18.58
2019-05-10T16:55:55.023Z,18.50
2019-05-10T16:58:29.800Z,18.38
2019-05-10T17:01:02.369Z,18.28
2019-05-10T17:03:32.004Z,18.18
2019-05-10T17:06:04.095Z,18.10
2019-05-10T17:08:36.712Z,18.05
2019-05-10T17:11:10.207Z,17.96
2019-05-10T17:13:41.647Z,17.90
2019-05-10T17:16:11.554Z,17.80
2019-05-10T17:18:42.493Z,17.72
2019-05-10T17:21:13.189Z,17.66
2019-05-10T17:23:46.968Z,17.60
2019-05-10T17:26:14.570Z,17.52
2019-05-10T17:28:45.121Z,17.41
2019-05-10T17:31:14.796Z,17.34
2019-05-10T17:33:50.115Z,17.29
2019-05-10T17:36:21.442Z,17.24
2019-05-10T17:38:53.347Z,17.21
2019-05-10T17:41:24.896Z,17.14
2019-05-10T17:43:54.044Z,17.05
2019-05-10T17:46:23.942Z,16.99
2019-05-10T17:48:53.817Z,16.91
2019-05-10T17:51:23.615Z,16.80
2019-05-10T17:54:38.830Z,16.66
2019-05-10T17:57:05.243Z,16.59
2019-05-10T17:59:34.974Z,16.54
2019-05-10T18:02:04.697Z,16.51
2019-05-10T18:04:34.399Z,16.45
2019-05-10T18:07:04.353Z,16.39
2019-05-10T18:09:34.008Z,16.33
2019-05-10T18:12:04.053Z,16.29
2019-05-10T18:14:33.925Z,16.25
2019-05-10T18:17:07.207Z,16.17
2019-05-10T18:19:36.633Z,16.12
2019-05-10T18:22:07.437Z,16.08
2019-05-10T18:24:41.444Z,16.05
2019-05-10T18:27:08.642Z,16.02
2019-05-10T18:29:39.900Z,15.99
2019-05-10T18:32:11.215Z,15.97
2019-05-10T18:34:41.546Z,15.91
2019-05-10T18:37:15.824Z,15.86
2019-05-10T18:39:47.210Z,15.81
2019-05-10T18:42:18.749Z,15.78
2019-05-10T18:45:07.420Z,15.77
2019-05-10T18:47:28.521Z,15.77
2019-05-10T18:49:58.135Z,15.76
2019-05-10T18:52:28.055Z,15.75
2019-05-10T18:55:00.383Z,15.77
2019-05-10T18:57:30.111Z,15.69
2019-05-10T18:59:59.751Z,15.18
2019-05-10T19:02:33.533Z,15.02
2019-05-10T19:05:02.475Z,15.08
2019-05-10T19:07:32.091Z,15.21
2019-05-10T19:10:03.009Z,15.33
2019-05-10T19:12:34.560Z,15.33
2019-05-10T19:15:16.954Z,15.38
2019-05-10T19:17:46.258Z,15.45
2019-05-10T19:20:18.550Z,15.48
2019-05-10T19:22:48.404Z,15.51
2019-05-10T19:25:18.211Z,15.51
2019-05-10T19:27:50.999Z,15.56
2019-05-10T19:30:22.468Z,15.58
2019-05-10T19:32:56.450Z,15.60
2019-05-10T19:35:23.685Z,15.60
2019-05-10T19:37:54.136Z,15.44
2019-05-10T19:40:24.665Z,15.31
2019-05-10T19:42:54.380Z,15.30
2019-05-10T19:45:24.332Z,15.35
2019-05-10T19:47:55.519Z,15.41
2019-05-10T19:50:30.775Z,15.43
2019-05-10T19:53:03.916Z,15.46
2019-05-10T19:55:30.575Z,15.47
2019-05-10T19:58:00.227Z,15.45
2019-05-10T20:00:29.980Z,15.45
2019-05-10T20:02:59.890Z,15.37
2019-05-10T20:05:29.671Z,15.32
2019-05-10T20:07:59.333Z,15.32
2019-05-10T20:10:29.002Z,15.33
2019-05-10T20:12:58.671Z,15.37
2019-05-10T20:15:30.059Z,15.40
2019-05-10T20:18:00.130Z,15.43
2019-05-10T20:20:29.755Z,15.43
2019-05-10T20:23:01.059Z,15.43
2019-05-10T20:25:31.255Z,15.46
2019-05-10T20:28:00.889Z,15.43
2019-05-10T20:30:31.933Z,15.38
2019-05-10T20:33:01.609Z,15.36
2019-05-10T20:35:31.271Z,15.34
2019-05-10T20:38:02.577Z,15.33
2019-05-10T20:40:52.475Z,15.28
2019-05-10T20:43:24.676Z,15.16
2019-05-10T20:45:54.348Z,15.03
2019-05-10T20:48:23.979Z,14.98
2019-05-10T20:50:56.425Z,14.98
2019-05-10T20:53:28.491Z,15.00
2019-05-10T20:55:58.149Z,15.02
2019-05-10T20:58:27.883Z,15.05
2019-05-10T21:00:57.621Z,15.09
2019-05-10T21:03:27.282Z,15.10
2019-05-10T21:05:57.531Z,15.11
2019-05-10T21:08:27.219Z,15.12
2019-05-10T21:10:56.861Z,15.11
2019-05-10T21:13:26.627Z,15.05
2019-05-10T21:15:59.252Z,14.97
2019-05-10T21:18:28.913Z,14.80
2019-05-10T21:20:58.616Z,14.72
2019-05-10T21:23:28.298Z,14.61
2019-05-10T21:25:59.347Z,14.54
2019-05-10T21:28:29.018Z,14.51
2019-05-10T21:30:58.789Z,14.42
2019-05-10T21:33:29.385Z,14.41
2019-05-10T21:35:59.346Z,14.44
2019-05-10T21:38:32.877Z,14.49
2019-05-10T21:41:00.348Z,14.54
2019-05-10T21:43:30.931Z,14.58
2019-05-10T21:46:00.663Z,14.63
2019-05-10T21:48:30.542Z,14.66
2019-05-10T21:51:00.266Z,14.69
2019-05-10T21:53:30.127Z,14.71
2019-05-10T21:55:59.922Z,14.70
2019-05-10T21:58:30.829Z,14.70
2019-05-10T22:01:01.919Z,14.67
2019-05-10T22:03:31.607Z,14.66
2019-05-10T22:06:03.218Z,14.62
2019-05-10T22:08:47.178Z,14.57
2019-05-10T22:11:05.392Z,14.55
2019-05-10T22:13:36.741Z,14.49
2019-05-10T22:16:06.488Z,14.43
2019-05-10T22:18:40.545Z,14.34
2019-05-10T22:21:10.372Z,14.20
2019-05-10T22:23:41.175Z,14.08
2019-05-10T22:26:12.779Z,14.01
2019-05-10T22:28:42.629Z,13.97
2019-05-10T22:31:12.319Z,13.90
2019-05-10T22:33:41.958Z,13.85
2019-05-10T22:36:18.168Z,13.81
2019-05-10T22:38:48.069Z,13.70
2019-05-10T22:41:17.803Z,13.69
2019-05-10T22:43:47.676Z,13.73
2019-05-10T22:46:19.299Z,13.82
2019-05-10T22:48:48.950Z,13.90
2019-05-10T22:51:18.693Z,13.96
2019-05-10T22:53:59.023Z,14.01
2019-05-10T22:56:19.969Z,14.03
2019-05-10T22:58:49.655Z,14.04
2019-05-10T23:01:20.207Z,14.05
2019-05-10T23:03:49.874Z,14.02
2019-05-10T23:06:19.639Z,14.03
2019-05-10T23:08:49.421Z,13.99
2019-05-10T23:11:19.530Z,13.97
2019-05-10T23:13:49.271Z,13.95
2019-05-10T23:16:18.972Z,13.94
2019-05-10T23:18:48.637Z,13.93
2019-05-10T23:21:18.305Z,13.90
2019-05-10T23:23:47.935Z,13.73
2019-05-10T23:26:17.648Z,13.56
2019-05-10T23:28:47.357Z,13.34
2019-05-10T23:31:17.072Z,13.35
2019-05-10T23:33:47.262Z,13.40
2019-05-10T23:36:17.062Z,13.46
2019-05-10T23:38:47.628Z,13.50
2019-05-10T23:41:17.275Z,13.53
2019-05-10T23:43:47.855Z,13.42
2019-05-10T23:46:17.479Z,13.16
2019-05-10T23:51:53.421Z,12.72
2019-05-10T23:54:23.120Z,12.59
2019-05-10T23:56:52.773Z,12.52
2019-05-10T23:59:22.481Z,12.41
